createdAt,value
2018-07-04T00:02:19.841Z,80.00
2018-07-04T00:05:06.226Z,80.90
2018-07-04T00:07:52.316Z,81.10
2018-07-04T00:10:38.524Z,81.80
2018-07-04T00:13:24.696Z,82.10
2018-07-04T00:16:10.959Z,82.20
2018-07-04T00:18:57.229Z,82.70
2018-07-04T00:21:43.257Z,82.90
2018-07-04T00:24:29.366Z,83.30
2018-07-04T00:27:16.318Z,83.50
2018-07-04T00:30:02.945Z,83.60
2018-07-04T00:32:49.117Z,83.50
2018-07-04T00:35:36.237Z,83.70
2018-07-04T00:38:22.584Z,84.20
2018-07-04T00:41:08.553Z,84.80
2018-07-04T00:43:54.584Z,85.30
2018-07-04T00:46:40.952Z,85.90
2018-07-04T00:49:27.094Z,86.60
2018-07-04T00:52:14.508Z,86.60
2018-07-04T00:55:00.698Z,87.30
2018-07-04T00:57:46.569Z,86.60
2018-07-04T01:00:32.575Z,86.50
2018-07-04T01:03:18.861Z,86.50
2018-07-04T01:06:05.240Z,86.30
2018-07-04T01:08:51.173Z,86.00
2018-07-04T01:11:37.433Z,85.60
2018-07-04T01:14:23.560Z,86.00
2018-07-04T01:17:09.847Z,86.00
2018-07-04T01:19:56.680Z,86.60
2018-07-04T01:22:42.881Z,86.00
2018-07-04T01:25:28.977Z,85.90
2018-07-04T01:28:15.221Z,86.40
2018-07-04T01:31:01.324Z,86.00
2018-07-04T01:33:47.429Z,85.90
2018-07-04T01:36:33.498Z,85.90
2018-07-04T01:39:19.741Z,86.00
2018-07-04T01:42:05.589Z,86.00
2018-07-04T01:44:51.800Z,86.20
2018-07-04T01:47:39.165Z,86.30
2018-07-04T01:50:25.630Z,86.20
2018-07-04T01:53:11.596Z,85.70
2018-07-04T01:55:57.693Z,85.60
2018-07-04T01:58:43.809Z,85.80
2018-07-04T02:01:31.334Z,86.30
2018-07-04T02:04:17.368Z,86.30
2018-07-04T02:07:03.550Z,86.50
2018-07-04T02:09:49.447Z,87.30
2018-07-04T02:12:35.732Z,87.70
2018-07-04T02:15:21.821Z,87.70
2018-07-04T02:18:08.350Z,87.60
2018-07-04T02:20:54.216Z,87.50
2018-07-04T02:23:40.421Z,87.30
2018-07-04T02:26:26.504Z,87.20
2018-07-04T02:29:12.626Z,87.70
2018-07-04T02:31:58.706Z,88.40
2018-07-04T02:34:44.897Z,88.90
2018-07-04T02:37:31.808Z,88.80
2018-07-04T02:40:18.145Z,88.80
2018-07-04T02:43:04.307Z,88.40
2018-07-04T02:45:50.361Z,88.60
2018-07-04T02:48:36.361Z,88.50
2018-07-04T02:51:22.948Z,88.80
2018-07-04T02:54:09.097Z,88.80
2018-07-04T02:56:55.488Z,88.90
2018-07-04T02:59:41.440Z,88.90
2018-07-04T03:02:27.622Z,88.90
2018-07-04T03:05:13.559Z,88.90
2018-07-04T03:07:59.953Z,89.00
2018-07-04T03:10:45.968Z,89.20
2018-07-04T03:13:33.089Z,89.60
2018-07-04T03:16:19.222Z,90.00
2018-07-04T03:19:05.455Z,90.20
2018-07-04T03:21:51.349Z,90.00
2018-07-04T03:24:37.344Z,90.20
2018-07-04T03:27:23.424Z,90.20
2018-07-04T03:30:10.429Z,90.20
2018-07-04T03:32:56.482Z,90.40
2018-07-04T03:35:42.565Z,90.60
2018-07-04T03:38:29.588Z,90.80
2018-07-04T03:41:15.840Z,90.60
2018-07-04T03:44:01.946Z,90.50
2018-07-04T03:46:48.014Z,90.70
2018-07-04T03:49:34.189Z,90.50
2018-07-04T03:52:20.521Z,90.60
2018-07-04T03:55:06.517Z,90.40
2018-07-04T03:57:52.510Z,90.50
2018-07-04T04:00:40.448Z,90.80
2018-07-04T04:03:27.309Z,90.70
2018-07-04T04:06:13.454Z,90.70
2018-07-04T04:08:59.725Z,90.80
2018-07-04T04:11:45.656Z,90.80
2018-07-04T04:14:31.740Z,90.60
2018-07-04T04:17:18.154Z,90.50
2018-07-04T04:20:04.229Z,90.10
2018-07-04T04:22:50.187Z,90.00
2018-07-04T04:25:36.568Z,89.10
2018-07-04T04:28:22.485Z,89.20
2018-07-04T04:31:08.704Z,89.30
2018-07-04T04:33:54.787Z,89.40
2018-07-04T04:36:41.181Z,89.40
2018-07-04T04:39:27.208Z,88.70
2018-07-04T04:42:13.161Z,88.60
2018-07-04T04:44:59.171Z,88.20
2018-07-04T04:47:45.164Z,88.00
2018-07-04T04:50:31.216Z,87.80
2018-07-04T04:53:17.585Z,87.80
2018-07-04T04:56:03.620Z,88.50
2018-07-04T04:58:50.572Z,89.40
2018-07-04T05:01:38.561Z,89.50
2018-07-04T05:04:24.785Z,87.70
2018-07-04T05:07:11.280Z,86.60
2018-07-04T05:09:57.557Z,83.70
2018-07-04T05:12:43.533Z,82.10
2018-07-04T05:15:29.901Z,81.40
2018-07-04T05:18:15.823Z,79.60
2018-07-04T05:21:02.555Z,80.60
2018-07-04T05:23:48.669Z,80.90
2018-07-04T05:26:35.149Z,78.90
2018-07-04T05:29:21.889Z,79.20
2018-07-04T05:32:08.408Z,77.80
2018-07-04T05:34:54.433Z,78.80
2018-07-04T05:37:40.604Z,79.10
2018-07-04T05:40:26.549Z,80.70
2018-07-04T05:43:13.227Z,81.20
2018-07-04T05:45:59.241Z,80.30
2018-07-04T05:48:45.317Z,80.00
2018-07-04T05:51:31.381Z,77.80
2018-07-04T05:54:17.482Z,77.50
2018-07-04T05:57:03.417Z,76.50
2018-07-04T05:59:49.333Z,77.20
2018-07-04T06:02:35.421Z,77.00
2018-07-04T06:05:21.508Z,77.00
2018-07-04T06:08:08.084Z,75.80
2018-07-04T06:10:54.700Z,75.70
2018-07-04T06:13:40.824Z,74.50
2018-07-04T06:16:27.104Z,73.80
2018-07-04T06:19:13.225Z,71.30
2018-07-04T06:21:59.393Z,70.80
2018-07-04T06:24:45.880Z,67.00
2018-07-04T06:27:34.443Z,65.60
2018-07-04T06:30:20.404Z,65.00
2018-07-04T06:33:06.482Z,65.80
2018-07-04T06:35:53.805Z,63.80
2018-07-04T06:38:21.385Z,64.10
2018-07-04T06:40:49.601Z,62.70
2018-07-04T06:43:17.452Z,64.00
2018-07-04T06:45:45.089Z,65.30
2018-07-04T06:48:12.665Z,66.40
2018-07-04T06:50:40.525Z,64.40
2018-07-04T06:53:08.122Z,64.60
2018-07-04T06:55:35.782Z,65.90
2018-07-04T06:58:03.601Z,64.70
2018-07-04T07:00:32.795Z,65.70
2018-07-04T07:03:18.757Z,64.90
2018-07-04T07:06:04.624Z,67.10
2018-07-04T07:08:52.101Z,65.90
2018-07-04T07:11:38.015Z,65.90
2018-07-04T07:14:24.192Z,66.10
2018-07-04T07:17:10.228Z,65.70
